createdAt,value
2019-04-23T00:02:51.116Z,5.00
2019-04-23T00:08:18.896Z,6.40
2019-04-23T00:13:12.472Z,9.30
2019-04-23T00:18:22.282Z,6.43
2019-04-23T00:23:35.067Z,2.67
2019-04-23T00:28:47.906Z,6.03
2019-04-23T00:33:57.537Z,6.60
2019-04-23T00:39:08.186Z,4.70
2019-04-23T00:44:25.007Z,7.07
2019-04-23T00:49:37.235Z,4.10
2019-04-23T01:10:20.570Z,4.93
2019-04-23T01:15:37.254Z,4.57
2019-04-23T01:20:52.038Z,4.70
2019-04-23T01:25:50.087Z,6.97
2019-04-23T01:31:18.170Z,4.43
2019-04-23T01:41:33.320Z,3.90
2019-04-23T01:57:11.131Z,3.37
2019-04-23T02:07:35.662Z,4.17
2019-04-23T02:12:53.617Z,3.63
2019-04-23T02:18:02.150Z,2.80
2019-04-23T02:23:19.942Z,4.00
2019-04-23T02:28:46.070Z,2.20
2019-04-23T02:33:44.529Z,9.97
2019-04-23T02:44:11.688Z,4.23
2019-04-23T02:49:27.255Z,5.23
2019-04-23T03:00:08.075Z,4.63
2019-04-23T03:05:04.461Z,2.50
2019-04-23T03:10:11.817Z,4.10
2019-04-23T03:20:59.177Z,2.77
2019-04-23T03:26:08.540Z,3.93
2019-04-23T03:32:52.675Z,3.63
2019-04-23T03:37:00.569Z,4.20
2019-04-23T03:41:56.131Z,4.67
2019-04-23T03:47:04.194Z,5.00
2019-04-23T03:52:21.260Z,6.93
2019-04-23T03:57:25.285Z,4.90
2019-04-23T04:02:52.728Z,4.23
2019-04-23T04:13:30.720Z,4.77
2019-04-23T04:23:53.459Z,5.63
2019-04-23T04:29:00.649Z,3.90
2019-04-23T04:39:29.354Z,3.93
2019-04-23T04:44:42.698Z,4.30
2019-04-23T04:49:56.516Z,5.93
2019-04-23T04:55:16.237Z,5.80
2019-04-23T05:06:11.773Z,7.57
2019-04-23T05:11:04.751Z,4.80
2019-04-23T05:21:20.437Z,4.63
2019-04-23T05:31:36.066Z,6.23
2019-04-23T05:37:01.865Z,6.87
2019-04-23T05:42:17.636Z,6.07
2019-04-23T05:47:58.624Z,7.73
2019-04-23T05:52:57.795Z,7.73
2019-04-23T05:58:06.449Z,4.93
2019-04-23T06:03:16.040Z,5.90
2019-04-23T06:08:32.016Z,9.53
2019-04-23T06:13:44.495Z,6.73
2019-04-23T06:18:56.908Z,8.37
2019-04-23T06:24:02.395Z,7.73
2019-04-23T06:39:42.730Z,9.77
2019-04-23T06:44:58.455Z,7.03
2019-04-23T06:50:08.198Z,7.87
2019-04-23T07:00:48.816Z,9.23
2019-04-23T07:16:33.228Z,10.43
2019-04-23T07:21:55.955Z,9.30
2019-04-23T07:26:54.986Z,9.50
2019-04-23T07:32:13.094Z,9.80
2019-04-23T07:37:24.117Z,9.13
2019-04-23T07:42:56.641Z,12.27
2019-04-23T07:48:16.439Z,10.30
2019-04-23T07:53:46.648Z,11.90
2019-04-23T07:58:52.528Z,9.80
2019-04-23T08:04:12.035Z,8.70
2019-04-23T08:09:35.399Z,9.40
2019-04-23T08:14:48.217Z,9.63
2019-04-23T08:19:56.454Z,9.57
2019-04-23T08:25:12.595Z,9.07
2019-04-23T08:30:19.079Z,11.93
2019-04-23T08:35:35.923Z,10.40
2019-04-23T08:41:02.570Z,11.37
2019-04-23T08:46:15.285Z,12.73
2019-04-23T08:51:38.913Z,9.17
2019-04-23T08:56:55.056Z,8.37
2019-04-23T09:02:24.192Z,9.30
2019-04-23T09:07:35.916Z,10.57
2019-04-23T09:12:47.438Z,10.13
2019-04-23T09:23:11.593Z,10.70
2019-04-23T09:34:16.669Z,10.35
2019-04-23T09:39:43.073Z,8.93
2019-04-23T09:45:15.561Z,13.90
2019-04-23T09:50:24.027Z,12.43
2019-04-23T09:55:35.623Z,10.25
2019-04-23T10:05:42.227Z,11.43
2019-04-23T10:10:45.173Z,8.30
2019-04-23T10:16:15.370Z,8.55
2019-04-23T10:21:29.291Z,9.48
2019-04-23T10:26:41.862Z,12.30
2019-04-23T10:31:55.673Z,11.65
2019-04-23T10:37:07.169Z,9.15
2019-04-23T10:42:21.901Z,9.93
2019-04-23T10:53:29.959Z,10.63
2019-04-23T11:04:09.798Z,10.78
2019-04-23T11:09:29.305Z,8.85
2019-04-23T11:14:27.131Z,9.73
2019-04-23T11:19:52.812Z,10.85
2019-04-23T11:24:50.069Z,9.73
2019-04-23T11:30:11.925Z,10.15
2019-04-23T11:35:22.777Z,11.70
2019-04-23T11:40:40.417Z,13.32
2019-04-23T11:56:48.726Z,10.45
2019-04-23T12:07:22.680Z,10.30
2019-04-23T12:12:43.009Z,10.60
2019-04-23T12:17:55.934Z,9.28
2019-04-23T12:23:12.339Z,9.38
2019-04-23T12:28:23.497Z,10.15
2019-04-23T12:33:39.126Z,8.88
2019-04-23T12:38:41.018Z,13.25
2019-04-23T12:43:57.957Z,11.60
2019-04-23T12:49:34.377Z,9.97
2019-04-23T12:54:41.269Z,9.83
2019-04-23T12:59:56.951Z,14.55
2019-04-23T13:10:45.279Z,9.45
2019-04-23T13:16:06.404Z,10.90
2019-04-23T13:21:22.036Z,8.83
2019-04-23T13:26:23.589Z,8.85
2019-04-23T13:31:42.244Z,9.35
2019-04-23T13:36:59.755Z,9.88
2019-04-23T13:42:40.991Z,8.50
2019-04-23T14:08:50.465Z,7.30
2019-04-23T14:14:15.159Z,8.05
2019-04-23T14:19:22.841Z,9.30
2019-04-23T14:25:04.962Z,10.00
2019-04-23T14:29:55.980Z,7.15
2019-04-23T14:40:37.449Z,7.72
2019-04-23T14:45:58.147Z,6.65
2019-04-23T14:50:57.581Z,9.20
2019-04-23T14:56:09.491Z,7.53
2019-04-23T15:06:46.709Z,8.45
2019-04-23T15:12:06.144Z,6.58
2019-04-23T15:17:07.175Z,8.40
2019-04-23T15:22:20.328Z,8.98
2019-04-23T15:33:41.283Z,8.58
2019-04-23T15:43:51.381Z,12.23
2019-04-23T15:49:01.279Z,8.45
2019-04-23T15:54:28.214Z,9.88
2019-04-23T15:59:55.879Z,7.20
2019-04-23T16:04:41.747Z,7.20
2019-04-23T16:10:22.283Z,11.53
2019-04-23T16:21:10.479Z,13.98
2019-04-23T16:26:08.706Z,7.90
2019-04-23T16:31:20.786Z,13.75
2019-04-23T16:36:32.850Z,10.63
2019-04-23T16:41:49.093Z,10.20
2019-04-23T16:47:04.452Z,14.75
2019-04-23T17:02:34.828Z,8.90
2019-04-23T17:08:30.637Z,10.58
2019-04-23T17:18:34.728Z,10.70
2019-04-23T17:29:16.086Z,10.35
2019-04-23T17:34:30.758Z,12.68
2019-04-23T17:40:12.293Z,8.35
2019-04-23T17:51:16.571Z,9.85
2019-04-23T18:01:36.030Z,14.25
2019-04-23T18:12:19.797Z,8.55
2019-04-23T18:17:24.210Z,10.00
2019-04-23T18:22:34.026Z,12.13
2019-04-23T18:27:38.389Z,10.25
2019-04-23T18:38:18.568Z,14.13
2019-04-23T18:43:29.391Z,11.25
2019-04-23T18:59:10.241Z,12.73
2019-04-23T19:04:54.998Z,11.70
2019-04-23T19:15:33.746Z,13.13
2019-04-23T19:20:46.423Z,10.93
2019-04-23T19:25:40.555Z,11.70
2019-04-23T19:31:14.724Z,10.75
2019-04-23T19:36:26.524Z,15.55
2019-04-23T19:41:55.881Z,15.40
2019-04-23T19:47:01.737Z,12.53
2019-04-23T19:57:19.431Z,13.72
2019-04-23T20:02:45.260Z,16.17
2019-04-23T20:08:04.487Z,11.63
2019-04-23T20:12:51.802Z,12.85
2019-04-23T20:18:05.750Z,12.05
2019-04-23T20:23:47.785Z,12.58
2019-04-23T20:29:11.854Z,10.70
2019-04-23T20:39:45.617Z,10.80
2019-04-23T20:49:58.264Z,13.90
2019-04-23T20:55:29.428Z,12.90
2019-04-23T21:05:44.652Z,13.37
2019-04-23T21:10:55.394Z,12.37
2019-04-23T21:16:41.269Z,15.03
2019-04-23T21:22:13.587Z,13.23
2019-04-23T21:43:20.611Z,18.10
2019-04-23T21:48:50.933Z,14.83
2019-04-23T21:53:46.345Z,15.23
2019-04-23T22:09:30.018Z,14.47
2019-04-23T22:14:57.368Z,13.67
2019-04-23T22:25:45.148Z,14.40
2019-04-23T22:30:55.041Z,14.40
2019-04-23T22:36:16.498Z,14.43
2019-04-23T22:41:17.822Z,15.17
2019-04-23T22:46:37.139Z,14.53
2019-04-23T23:02:25.414Z,16.70
2019-04-23T23:13:18.661Z,16.40
2019-04-23T23:23:40.373Z,15.63
2019-04-23T23:28:44.726Z,15.80
2019-04-23T23:39:25.049Z,14.27
2019-04-23T23:50:07.382Z,16.33
2019-04-23T23:55:16.086Z,16.87
